createdAt,value
2023-12-05T00:00:03.862Z,79.97
2023-12-05T00:02:30.282Z,81.16
2023-12-05T00:04:56.805Z,82.32
2023-12-05T00:07:24.888Z,81.67
2023-12-05T00:09:51.498Z,83.34
2023-12-05T00:12:18.028Z,84.65
2023-12-05T00:14:45.342Z,85.51
2023-12-05T00:17:11.784Z,85.41
2023-12-05T00:19:38.346Z,84.87
2023-12-05T00:22:05.090Z,85.49
2023-12-05T00:24:31.648Z,84.49
2023-12-05T00:26:58.127Z,84.71
2023-12-05T00:29:24.656Z,84.82
2023-12-05T00:31:51.063Z,85.41
2023-12-05T00:34:17.551Z,85.20
2023-12-05T00:36:44.108Z,84.79
2023-12-05T00:39:10.549Z,85.20
2023-12-05T00:41:36.974Z,85.47
2023-12-05T00:44:03.404Z,84.69
2023-12-05T00:46:29.840Z,84.85
2023-12-05T00:48:56.367Z,84.63
2023-12-05T00:51:22.908Z,84.42
2023-12-05T00:53:49.556Z,84.48
2023-12-05T00:56:16.097Z,84.40
2023-12-05T00:58:42.995Z,84.18
2023-12-05T01:01:09.537Z,84.34
2023-12-05T01:03:36.429Z,83.62
2023-12-05T01:06:03.111Z,83.79
2023-12-05T01:08:29.526Z,84.43
2023-12-05T01:10:56.303Z,85.00
2023-12-05T01:13:22.863Z,84.17
2023-12-05T01:15:49.418Z,83.74
2023-12-05T01:18:16.104Z,82.51
2023-12-05T01:20:42.799Z,82.83
2023-12-05T01:23:09.290Z,83.04
2023-12-05T01:25:36.075Z,83.51
2023-12-05T01:28:03.742Z,83.62
2023-12-05T01:30:30.219Z,82.77
2023-12-05T01:32:56.782Z,81.76
2023-12-05T01:35:23.240Z,81.05
2023-12-05T01:37:49.656Z,79.54
2023-12-05T01:40:16.165Z,79.35
2023-12-05T01:42:42.841Z,78.97
2023-12-05T01:45:09.895Z,79.54
2023-12-05T01:47:37.353Z,78.83
2023-12-05T01:50:05.663Z,79.14
2023-12-05T01:52:32.610Z,80.35
2023-12-05T01:54:59.051Z,80.40
2023-12-05T01:57:26.651Z,82.41
2023-12-05T01:59:54.005Z,84.06
2023-12-05T02:02:20.530Z,85.31
2023-12-05T02:04:47.278Z,85.70
2023-12-05T02:07:14.966Z,86.53
2023-12-05T02:09:41.484Z,86.59
2023-12-05T02:12:08.478Z,86.67
2023-12-05T02:14:34.957Z,87.19
2023-12-05T02:17:20.045Z,86.56
2023-12-05T02:19:51.116Z,86.48
2023-12-05T02:22:55.520Z,86.36
2023-12-05T02:25:24.945Z,87.08
2023-12-05T02:27:52.380Z,87.47
2023-12-05T02:30:18.981Z,88.15
2023-12-05T02:32:45.663Z,87.86
2023-12-05T02:35:13.996Z,87.24
2023-12-05T02:38:06.368Z,87.32
2023-12-05T02:40:41.902Z,87.56
2023-12-05T02:43:19.474Z,88.08
2023-12-05T02:45:47.771Z,87.98
2023-12-05T02:48:14.777Z,88.59
2023-12-05T02:50:41.386Z,88.66
2023-12-05T02:53:07.827Z,88.11
2023-12-05T02:55:34.507Z,88.06
2023-12-05T02:58:00.939Z,88.72
2023-12-05T03:00:27.451Z,88.99
2023-12-05T03:02:53.923Z,88.72
2023-12-05T03:05:20.384Z,88.34
2023-12-05T03:07:46.898Z,88.11
2023-12-05T03:10:13.413Z,87.47
2023-12-05T03:12:39.892Z,87.53
2023-12-05T03:15:07.214Z,87.17
2023-12-05T03:17:33.866Z,87.60
2023-12-05T03:20:00.492Z,87.76
2023-12-05T03:22:27.529Z,88.31
2023-12-05T03:24:55.687Z,88.32
2023-12-05T03:27:22.206Z,88.77
2023-12-05T03:29:48.633Z,89.26
2023-12-05T03:32:15.085Z,89.40
2023-12-05T03:34:41.575Z,89.30
2023-12-05T03:37:08.058Z,89.99
2023-12-05T03:39:34.552Z,89.44
2023-12-05T03:42:01.037Z,89.98
2023-12-05T03:44:27.484Z,89.74
2023-12-05T03:46:53.974Z,88.82
2023-12-05T03:49:20.495Z,88.73
2023-12-05T03:51:47.046Z,88.57
2023-12-05T03:54:13.740Z,88.74
2023-12-05T03:56:40.276Z,88.44
2023-12-05T03:59:06.754Z,88.08
2023-12-05T04:01:33.243Z,88.50
2023-12-05T04:03:59.844Z,89.47
2023-12-05T04:06:26.518Z,89.16
2023-12-05T04:08:53.026Z,88.58
2023-12-05T04:11:29.495Z,88.61
2023-12-05T04:13:56.243Z,88.70
2023-12-05T04:16:22.638Z,88.64
2023-12-05T04:18:49.195Z,88.31
2023-12-05T04:21:16.959Z,88.18
2023-12-05T04:23:43.417Z,88.25
2023-12-05T04:26:09.861Z,87.70
2023-12-05T04:28:36.353Z,88.03
2023-12-05T04:31:02.993Z,87.55
2023-12-05T04:33:29.476Z,87.21
2023-12-05T04:35:56.468Z,87.63
2023-12-05T04:38:22.856Z,88.25
2023-12-05T04:40:49.278Z,88.44
2023-12-05T04:43:15.855Z,87.74
2023-12-05T04:45:43.334Z,87.71
2023-12-05T04:48:10.215Z,87.42
2023-12-05T04:50:36.682Z,87.87
2023-12-05T04:53:03.355Z,88.06
2023-12-05T04:55:29.797Z,87.89
2023-12-05T04:57:56.329Z,87.74
2023-12-05T05:00:22.803Z,87.41
2023-12-05T05:02:49.298Z,86.79
2023-12-05T05:05:15.930Z,87.16
2023-12-05T05:07:42.471Z,86.84
2023-12-05T05:10:09.476Z,86.37
2023-12-05T05:12:36.073Z,86.57
2023-12-05T05:15:02.553Z,86.98
2023-12-05T05:17:29.015Z,87.40
2023-12-05T05:19:55.543Z,87.17
2023-12-05T05:22:21.999Z,88.25
2023-12-05T05:24:48.544Z,87.70
2023-12-05T05:27:15.200Z,87.62
2023-12-05T05:29:41.739Z,88.63
2023-12-05T05:32:08.258Z,88.82
2023-12-05T05:34:34.819Z,88.50
2023-12-05T05:37:01.409Z,88.29
2023-12-05T05:39:27.966Z,87.79
2023-12-05T05:41:54.450Z,87.62
2023-12-05T05:44:21.006Z,87.77
2023-12-05T05:46:47.612Z,86.98
2023-12-05T05:49:14.501Z,87.71
2023-12-05T05:51:41.067Z,87.63
2023-12-05T05:54:07.588Z,87.22
2023-12-05T05:56:40.596Z,86.54
2023-12-05T05:59:07.566Z,87.32
2023-12-05T06:01:34.040Z,87.32
2023-12-05T06:04:00.620Z,88.34
2023-12-05T06:06:27.295Z,88.70
2023-12-05T06:08:53.958Z,88.37
2023-12-05T06:11:21.347Z,88.09
2023-12-05T06:13:47.787Z,88.24
2023-12-05T06:16:14.244Z,87.86
2023-12-05T06:18:40.873Z,88.37
2023-12-05T06:21:07.635Z,88.48
2023-12-05T06:23:34.117Z,88.23
2023-12-05T06:26:00.562Z,87.54
2023-12-05T06:28:26.976Z,86.78
2023-12-05T06:30:53.521Z,86.29
2023-12-05T06:33:20.120Z,86.39
2023-12-05T06:35:46.657Z,86.89
2023-12-05T06:38:14.629Z,87.27
2023-12-05T06:40:41.525Z,87.35
2023-12-05T06:43:08.754Z,87.66
2023-12-05T06:45:35.821Z,88.02
2023-12-05T06:48:03.848Z,88.53
2023-12-05T06:50:31.813Z,88.35
2023-12-05T06:52:58.548Z,88.35
2023-12-05T06:55:25.385Z,88.67
2023-12-05T06:57:51.824Z,89.12
2023-12-05T07:00:19.678Z,89.04
2023-12-05T07:02:46.114Z,89.88
2023-12-05T07:05:12.782Z,89.70
2023-12-05T07:07:39.352Z,90.15
2023-12-05T07:10:07.064Z,90.33
2023-12-05T07:12:34.974Z,90.24
2023-12-05T07:15:01.646Z,90.01
2023-12-05T07:17:28.172Z,89.91
2023-12-05T07:19:54.764Z,89.91
2023-12-05T07:22:21.214Z,90.03
2023-12-05T07:24:47.676Z,89.62
2023-12-05T07:27:14.382Z,88.91
2023-12-05T07:29:40.879Z,88.68
2023-12-05T07:32:07.372Z,88.24
2023-12-05T07:34:33.874Z,88.00
2023-12-05T07:37:00.632Z,87.92
2023-12-05T07:39:27.827Z,87.58
2023-12-05T07:41:54.280Z,87.12
2023-12-05T07:44:21.500Z,86.92
2023-12-05T07:46:47.913Z,85.12
2023-12-05T07:49:14.469Z,84.85
2023-12-05T07:51:40.940Z,85.25
2023-12-05T07:54:12.367Z,85.61
2023-12-05T07:56:38.817Z,85.71
2023-12-05T07:59:05.317Z,86.25
2023-12-05T08:01:31.825Z,86.36
2023-12-05T08:03:59.006Z,85.83
2023-12-05T08:06:25.633Z,86.44
2023-12-05T08:08:52.326Z,85.79
2023-12-05T08:11:20.279Z,85.02
2023-12-05T08:13:48.671Z,85.65
2023-12-05T08:16:15.071Z,85.33
2023-12-05T08:18:41.664Z,85.20
2023-12-05T08:21:08.546Z,85.39
2023-12-05T08:23:35.030Z,84.40
2023-12-05T08:26:01.522Z,84.65
2023-12-05T08:28:29.717Z,84.12
2023-12-05T08:30:56.437Z,84.91
2023-12-05T08:33:23.492Z,85.08
2023-12-05T08:35:49.968Z,84.74
2023-12-05T08:38:16.361Z,84.63
2023-12-05T08:40:42.926Z,85.27
2023-12-05T08:43:09.347Z,84.80
2023-12-05T08:45:35.751Z,84.39
2023-12-05T08:48:02.291Z,84.40
2023-12-05T08:50:28.717Z,84.02
2023-12-05T08:52:55.724Z,83.54
2023-12-05T08:55:22.577Z,83.62
2023-12-05T08:57:49.092Z,84.07
2023-12-05T09:00:16.254Z,84.30
2023-12-05T09:02:42.669Z,85.60
2023-12-05T09:05:09.308Z,85.01
2023-12-05T09:07:36.076Z,85.34
2023-12-05T09:10:02.700Z,85.71
2023-12-05T09:12:29.165Z,85.41
2023-12-05T09:14:55.844Z,85.48
2023-12-05T09:17:22.388Z,85.88
2023-12-05T09:19:50.330Z,85.81
2023-12-05T09:22:16.962Z,85.88
2023-12-05T09:24:43.424Z,85.84
2023-12-05T09:27:09.913Z,85.73
2023-12-05T09:29:49.307Z,85.75
2023-12-05T09:32:18.034Z,85.24
2023-12-05T09:34:45.443Z,85.04
2023-12-05T09:37:11.961Z,84.24
2023-12-05T09:39:38.392Z,85.32
2023-12-05T09:42:07.852Z,84.75
2023-12-05T09:44:35.149Z,84.81
2023-12-05T09:47:07.209Z,84.65
2023-12-05T09:49:34.097Z,84.16
2023-12-05T09:52:01.151Z,84.15
2023-12-05T09:54:28.076Z,84.35
2023-12-05T09:56:59.136Z,83.80
2023-12-05T09:59:25.671Z,83.73
2023-12-05T10:01:56.592Z,83.28
2023-12-05T10:04:23.506Z,83.61
2023-12-05T10:06:51.377Z,83.04
2023-12-05T10:09:18.658Z,82.98
2023-12-05T10:11:45.919Z,82.64
2023-12-05T10:14:12.719Z,82.84
2023-12-05T10:16:39.677Z,82.61
2023-12-05T10:19:09.644Z,82.87
2023-12-05T10:21:37.166Z,83.19
2023-12-05T10:24:04.336Z,82.82
2023-12-05T10:26:31.216Z,83.72
2023-12-05T10:28:57.896Z,83.33
2023-12-05T10:31:27.302Z,83.50
2023-12-05T10:34:05.255Z,83.45
2023-12-05T10:36:31.774Z,83.23
2023-12-05T10:38:58.158Z,83.92
2023-12-05T10:41:25.819Z,83.17
2023-12-05T10:43:57.249Z,81.64
2023-12-05T10:46:27.539Z,81.10
2023-12-05T10:48:55.259Z,81.21
2023-12-05T10:51:25.598Z,81.17
2023-12-05T10:53:53.821Z,80.07
2023-12-05T10:56:20.735Z,80.18
2023-12-05T10:58:48.760Z,80.62
2023-12-05T11:01:15.690Z,80.06
2023-12-05T11:03:42.852Z,79.44
2023-12-05T11:06:10.084Z,79.93
2023-12-05T11:08:37.872Z,79.22
2023-12-05T11:11:05.612Z,79.27
2023-12-05T11:13:36.194Z,79.15
2023-12-05T11:16:11.360Z,79.27
2023-12-05T11:18:44.734Z,79.40
2023-12-05T11:21:52.713Z,79.12
2023-12-05T11:24:51.741Z,78.25
2023-12-05T11:27:53.421Z,77.17
2023-12-05T11:30:27.043Z,77.06
2023-12-05T11:33:15.955Z,77.01
2023-12-05T11:35:59.093Z,76.22
2023-12-05T11:38:26.303Z,75.99
2023-12-05T11:41:15.298Z,75.74
2023-12-05T11:43:44.943Z,75.48
2023-12-05T11:46:11.546Z,74.89
2023-12-05T11:48:38.227Z,75.04
2023-12-05T11:51:04.826Z,74.75
2023-12-05T11:53:31.541Z,74.47
2023-12-05T11:55:58.414Z,74.12
2023-12-05T11:58:35.655Z,73.49
2023-12-05T12:01:04.481Z,72.52
2023-12-05T12:03:51.107Z,72.43
2023-12-05T12:06:22.221Z,72.09
2023-12-05T12:08:51.442Z,72.05
2023-12-05T12:11:18.858Z,71.85
2023-12-05T12:13:45.310Z,72.09
2023-12-05T12:16:20.004Z,71.34
2023-12-05T12:18:53.446Z,71.55
2023-12-05T12:21:28.247Z,71.93
2023-12-05T12:23:59.286Z,72.21
2023-12-05T12:26:26.762Z,71.95
2023-12-05T12:28:53.250Z,71.15
2023-12-05T12:31:28.849Z,70.96
2023-12-05T12:33:57.596Z,70.94
2023-12-05T12:36:25.041Z,71.67
2023-12-05T12:38:51.618Z,71.90
2023-12-05T12:41:18.476Z,71.82
2023-12-05T12:43:45.108Z,71.79
2023-12-05T12:46:11.563Z,71.58
2023-12-05T12:48:38.260Z,70.95
2023-12-05T12:51:07.076Z,71.13
2023-12-05T12:53:33.527Z,71.11
2023-12-05T12:56:00.383Z,70.11
2023-12-05T12:58:36.584Z,69.25
2023-12-05T13:01:05.017Z,70.08
2023-12-05T13:03:33.546Z,69.19
2023-12-05T13:06:01.809Z,68.01
2023-12-05T13:08:28.477Z,68.62
2023-12-05T13:10:56.410Z,68.17
2023-12-05T13:13:22.918Z,67.73
2023-12-05T13:15:49.928Z,67.73
2023-12-05T13:18:17.117Z,66.84
2023-12-05T13:20:53.211Z,66.03
2023-12-05T13:23:21.041Z,65.76
2023-12-05T13:25:47.680Z,65.83
2023-12-05T13:28:14.673Z,64.97
2023-12-05T13:30:42.714Z,63.77
2023-12-05T13:33:12.956Z,64.49
2023-12-05T13:35:40.521Z,63.18
2023-12-05T13:38:08.650Z,62.66
2023-12-05T13:40:35.193Z,62.83
2023-12-05T13:43:01.745Z,63.18
2023-12-05T13:45:28.364Z,62.17
2023-12-05T13:47:54.875Z,62.63
2023-12-05T13:50:21.327Z,61.72
2023-12-05T13:52:47.772Z,62.31
2023-12-05T13:55:14.241Z,61.61
2023-12-05T13:57:40.826Z,61.49
2023-12-05T14:00:09.305Z,60.18
2023-12-05T14:02:35.796Z,60.17
2023-12-05T14:05:02.548Z,61.42
2023-12-05T14:07:29.125Z,61.71
2023-12-05T14:09:55.775Z,62.04
2023-12-05T14:12:22.356Z,61.72
2023-12-05T14:14:48.822Z,61.73
2023-12-05T14:17:15.602Z,62.09
2023-12-05T14:19:42.421Z,62.21
2023-12-05T14:22:08.964Z,61.83
2023-12-05T14:24:35.553Z,62.19
2023-12-05T14:27:02.805Z,62.53
2023-12-05T14:29:29.291Z,63.19
2023-12-05T14:31:55.821Z,62.43
2023-12-05T14:34:22.510Z,62.82
2023-12-05T14:36:49.694Z,62.87
2023-12-05T14:39:18.354Z,62.74
2023-12-05T14:41:49.652Z,63.02
2023-12-05T14:44:16.294Z,63.07
2023-12-05T14:46:42.883Z,63.48
2023-12-05T14:49:09.586Z,63.97
2023-12-05T14:51:36.682Z,63.12
2023-12-05T14:54:03.273Z,64.03
2023-12-05T14:56:29.709Z,64.04
2023-12-05T14:58:56.149Z,64.39
2023-12-05T15:01:22.771Z,65.04
2023-12-05T15:03:51.084Z,64.63
2023-12-05T15:06:17.850Z,64.55
2023-12-05T15:08:44.291Z,65.07
2023-12-05T15:11:10.739Z,65.19
2023-12-05T15:13:37.189Z,65.72
2023-12-05T15:16:03.973Z,65.74
2023-12-05T15:18:30.565Z,65.41
2023-12-05T15:20:57.463Z,66.18
2023-12-05T15:23:24.140Z,66.13
2023-12-05T15:25:51.097Z,66.58
2023-12-05T15:28:17.935Z,65.53
2023-12-05T15:30:44.514Z,65.73
2023-12-05T15:33:11.143Z,65.70
2023-12-05T15:35:37.650Z,67.23
2023-12-05T15:39:24.454Z,67.42
2023-12-05T15:43:11.142Z,65.95
2023-12-05T15:45:38.643Z,66.33
2023-12-05T15:48:06.878Z,66.75
2023-12-05T15:50:33.497Z,66.69
2023-12-05T15:53:02.328Z,67.32
2023-12-05T15:55:28.818Z,67.48
2023-12-05T15:57:55.290Z,67.98
2023-12-05T16:00:21.889Z,68.78
2023-12-05T16:02:48.335Z,68.86
2023-12-05T16:05:14.874Z,69.30
2023-12-05T16:07:41.596Z,70.35
2023-12-05T16:10:08.939Z,71.11
2023-12-05T16:12:35.564Z,71.71
2023-12-05T16:15:03.530Z,71.59
2023-12-05T16:17:30.552Z,71.60
2023-12-05T16:19:57.418Z,71.91
2023-12-05T16:22:23.943Z,72.80
2023-12-05T16:24:50.414Z,73.14
2023-12-05T16:27:17.165Z,73.54
2023-12-05T16:29:44.772Z,73.83
2023-12-05T16:32:11.557Z,74.25
2023-12-05T16:34:38.553Z,74.31
2023-12-05T16:37:05.089Z,73.75
2023-12-05T16:39:32.490Z,74.31
2023-12-05T16:41:58.950Z,74.92
2023-12-05T16:44:25.356Z,74.94
2023-12-05T16:46:51.745Z,75.96
2023-12-05T16:49:18.344Z,76.03
2023-12-05T16:51:45.045Z,76.78
2023-12-05T16:54:11.555Z,77.11
2023-12-05T16:56:37.973Z,76.52
2023-12-05T16:59:04.437Z,77.78
2023-12-05T17:01:31.027Z,78.94
2023-12-05T17:03:57.647Z,79.60
2023-12-05T17:06:24.292Z,79.88
2023-12-05T17:08:50.807Z,80.16
2023-12-05T17:11:17.275Z,80.41
2023-12-05T17:13:43.742Z,80.90
2023-12-05T17:16:10.346Z,80.95
2023-12-05T17:18:37.265Z,81.52
2023-12-05T17:21:04.195Z,81.64
2023-12-05T17:23:32.016Z,81.37
2023-12-05T17:25:58.688Z,81.75
2023-12-05T17:28:25.322Z,82.30
2023-12-05T17:30:51.767Z,82.88
2023-12-05T17:33:18.825Z,82.91
2023-12-05T17:35:45.447Z,83.28
2023-12-05T17:38:13.220Z,83.71
2023-12-05T17:40:39.628Z,84.17
2023-12-05T17:43:06.166Z,84.29
2023-12-05T17:45:32.692Z,84.78
2023-12-05T17:47:59.946Z,85.35
2023-12-05T17:50:26.469Z,85.94
2023-12-05T17:52:53.621Z,85.49
2023-12-05T17:55:20.040Z,85.67
2023-12-05T17:57:46.474Z,85.84
2023-12-05T18:00:13.932Z,85.77
2023-12-05T18:02:40.669Z,86.04
2023-12-05T18:05:07.874Z,85.96
2023-12-05T18:07:53.567Z,85.76
2023-12-05T18:10:20.780Z,86.30
2023-12-05T18:12:47.532Z,87.19
2023-12-05T18:15:14.322Z,87.23
2023-12-05T18:17:41.713Z,86.95
2023-12-05T18:20:09.847Z,86.80
2023-12-05T18:22:36.438Z,86.76
2023-12-05T18:25:07.536Z,86.35
2023-12-05T18:27:34.435Z,87.21
2023-12-05T18:30:01.333Z,86.90
2023-12-05T18:32:28.557Z,87.70
2023-12-05T18:34:55.437Z,87.50
2023-12-05T18:37:22.341Z,87.59
2023-12-05T18:39:49.036Z,87.99
2023-12-05T18:42:15.479Z,87.91
2023-12-05T18:44:42.096Z,88.06
2023-12-05T18:47:08.478Z,88.82
2023-12-05T18:49:35.122Z,88.18
2023-12-05T18:52:02.102Z,88.13
2023-12-05T18:54:28.619Z,88.25
2023-12-05T18:56:55.038Z,88.01
2023-12-05T18:59:21.517Z,88.72
2023-12-05T19:01:48.683Z,88.85
2023-12-05T19:04:15.421Z,88.75
2023-12-05T19:06:41.942Z,88.89
2023-12-05T19:09:08.464Z,88.79
2023-12-05T19:11:35.501Z,88.60
2023-12-05T19:14:03.480Z,88.42
2023-12-05T19:16:29.919Z,88.16
2023-12-05T19:18:56.719Z,88.90
2023-12-05T19:21:23.269Z,88.39
2023-12-05T19:23:49.645Z,88.63
2023-12-05T19:26:27.021Z,89.51
2023-12-05T19:28:57.640Z,89.21
2023-12-05T19:31:24.612Z,89.13
2023-12-05T19:33:51.548Z,89.43
2023-12-05T19:36:18.103Z,89.32
2023-12-05T19:38:44.591Z,88.82
2023-12-05T19:41:10.972Z,89.60
2023-12-05T19:43:37.397Z,90.04
2023-12-05T19:46:04.008Z,90.66
2023-12-05T19:48:31.066Z,90.60
2023-12-05T19:50:57.505Z,90.55
2023-12-05T19:53:23.963Z,89.73
2023-12-05T19:55:54.436Z,89.89
2023-12-05T19:58:20.840Z,89.34
2023-12-05T20:00:47.270Z,89.85
2023-12-05T20:03:13.766Z,90.18
2023-12-05T20:05:40.553Z,89.73
2023-12-05T20:08:08.362Z,90.11
2023-12-05T20:10:35.476Z,89.92
2023-12-05T20:13:01.895Z,89.91
2023-12-05T20:15:30.596Z,90.18
2023-12-05T20:17:57.834Z,90.02
2023-12-05T20:20:24.292Z,90.22
2023-12-05T20:22:50.680Z,89.58
2023-12-05T20:25:17.511Z,90.05
2023-12-05T20:27:46.113Z,89.96
2023-12-05T20:30:12.603Z,89.78
2023-12-05T20:32:39.003Z,90.14
2023-12-05T20:35:06.076Z,90.44
2023-12-05T20:37:32.480Z,90.85
2023-12-05T20:39:59.639Z,90.75
2023-12-05T20:42:28.162Z,90.33
2023-12-05T20:44:55.091Z,90.09
2023-12-05T20:47:21.651Z,89.93
2023-12-05T20:49:48.403Z,89.98
2023-12-05T20:52:15.042Z,89.97
2023-12-05T20:54:41.479Z,89.05
2023-12-05T20:57:08.250Z,89.34
2023-12-05T20:59:36.805Z,89.25
2023-12-05T21:02:04.758Z,89.97
2023-12-05T21:04:31.289Z,89.99
2023-12-05T21:06:57.949Z,89.37
2023-12-05T21:09:24.625Z,90.05
2023-12-05T21:11:51.158Z,89.45
2023-12-05T21:14:17.659Z,89.79
2023-12-05T21:16:44.299Z,89.21
2023-12-05T21:19:11.150Z,89.28
2023-12-05T21:21:37.774Z,89.32
2023-12-05T21:24:04.517Z,89.14
2023-12-05T21:26:30.920Z,89.35
2023-12-05T21:28:57.305Z,88.95
2023-12-05T21:31:23.685Z,89.50
2023-12-05T21:33:51.074Z,89.50
2023-12-05T21:36:24.945Z,89.42
2023-12-05T21:38:55.652Z,89.47
2023-12-05T21:41:23.857Z,89.01
2023-12-05T21:43:51.848Z,89.29
2023-12-05T21:46:29.804Z,88.76
2023-12-05T21:48:57.347Z,88.91
2023-12-05T21:51:24.032Z,88.72
2023-12-05T21:53:50.619Z,89.45
2023-12-05T21:56:17.417Z,88.87
2023-12-05T21:58:44.074Z,88.70
2023-12-05T22:01:15.483Z,88.88
2023-12-05T22:03:43.460Z,88.86
2023-12-05T22:06:11.133Z,89.05
2023-12-05T22:08:37.746Z,89.13
2023-12-05T22:11:05.996Z,88.81
2023-12-05T22:13:33.263Z,89.06
2023-12-05T22:16:01.002Z,89.42
2023-12-05T22:18:27.826Z,89.57
2023-12-05T22:20:55.153Z,88.74
2023-12-05T22:23:21.656Z,88.48
2023-12-05T22:25:49.460Z,88.39
2023-12-05T22:28:16.051Z,88.86
2023-12-05T22:30:42.534Z,88.53
2023-12-05T22:33:09.508Z,88.51
2023-12-05T22:35:38.574Z,88.20
2023-12-05T22:38:04.957Z,88.18
2023-12-05T22:40:31.750Z,88.33
2023-12-05T22:42:58.180Z,88.15
2023-12-05T22:45:24.572Z,87.95
2023-12-05T22:47:51.015Z,87.70
2023-12-05T22:50:17.510Z,87.81
2023-12-05T22:52:43.955Z,87.99
2023-12-05T22:55:11.292Z,87.38
2023-12-05T22:57:37.769Z,87.86
2023-12-05T23:00:07.162Z,87.46
2023-12-05T23:02:33.787Z,87.18
2023-12-05T23:05:00.342Z,87.55
2023-12-05T23:07:26.751Z,87.73
2023-12-05T23:09:53.151Z,86.70
2023-12-05T23:12:19.987Z,86.52
2023-12-05T23:14:46.599Z,86.88
2023-12-05T23:17:13.650Z,86.64
2023-12-05T23:19:40.351Z,86.25
2023-12-05T23:22:06.764Z,86.70
2023-12-05T23:24:33.273Z,86.61
2023-12-05T23:26:59.715Z,86.38
2023-12-05T23:29:26.278Z,86.28
2023-12-05T23:31:52.825Z,86.08
2023-12-05T23:34:19.354Z,86.03
2023-12-05T23:36:46.628Z,85.72
2023-12-05T23:39:13.026Z,84.91
2023-12-05T23:41:39.786Z,85.20
2023-12-05T23:44:06.237Z,84.60
2023-12-05T23:46:32.631Z,84.60
2023-12-05T23:48:59.103Z,85.00
2023-12-05T23:51:25.564Z,83.94
2023-12-05T23:53:54.021Z,84.04
2023-12-05T23:56:20.531Z,83.96
2023-12-05T23:58:46.942Z,83.72
